sensor_id;sensor_type;location;lat;lon;timestamp;pressure;altitude;pressure_sealevel;temperature;humidity
50338;BME280;46221;51.178;5.900;2023-02-26T00:01:27;101573.19;;;12.25;57.72
50338;BME280;46221;51.178;5.900;2023-02-26T00:03:57;101574.09;;;12.24;57.54
50338;BME280;46221;51.178;5.900;2023-02-26T00:06:25;101569.78;;;12.20;57.40
50338;BME280;46221;51.178;5.900;2023-02-26T00:08:53;101574.25;;;12.18;58.01
50338;BME280;46221;51.178;5.900;2023-02-26T00:11:20;101570.75;;;12.16;57.82
50338;BME280;46221;51.178;5.900;2023-02-26T00:13:47;101572.50;;;12.17;57.81
50338;BME280;46221;51.178;5.900;2023-02-26T00:16:28;101582.28;;;12.16;57.65
50338;BME280;46221;51.178;5.900;2023-02-26T00:18:56;101582.38;;;12.12;57.77
50338;BME280;46221;51.178;5.900;2023-02-26T00:21:24;101581.50;;;12.11;58.28
50338;BME280;46221;51.178;5.900;2023-02-26T00:23:52;101591.19;;;12.14;58.16
50338;BME280;46221;51.178;5.900;2023-02-26T00:26:19;101590.41;;;12.10;58.27
50338;BME280;46221;51.178;5.900;2023-02-26T00:28:46;101600.97;;;12.13;58.27
50338;BME280;46221;51.178;5.900;2023-02-26T00:31:14;101598.31;;;12.12;58.52
50338;BME280;46221;51.178;5.900;2023-02-26T00:33:42;101597.50;;;12.10;58.57
50338;BME280;46221;51.178;5.900;2023-02-26T00:38:41;101597.66;;;12.02;58.48
50338;BME280;46221;51.178;5.900;2023-02-26T00:41:11;101606.47;;;12.04;58.72
50338;BME280;46221;51.178;5.900;2023-02-26T00:43:37;101599.44;;;12.01;58.87
50338;BME280;46221;51.178;5.900;2023-02-26T00:46:30;101609.16;;;12.02;58.92
50338;BME280;46221;51.178;5.900;2023-02-26T00:49:37;101614.53;;;11.99;59.03
50338;BME280;46221;51.178;5.900;2023-02-26T00:52:14;101621.69;;;11.97;58.82
50338;BME280;46221;51.178;5.900;2023-02-26T00:54:45;101630.59;;;11.96;58.96
50338;BME280;46221;51.178;5.900;2023-02-26T00:57:11;101627.94;;;11.96;58.93
50338;BME280;46221;51.178;5.900;2023-02-26T00:59:38;101629.72;;;11.94;58.91
50338;BME280;46221;51.178;5.900;2023-02-26T01:02:04;101630.59;;;11.96;58.88
50338;BME280;46221;51.178;5.900;2023-02-26T01:04:30;101622.69;;;11.93;58.13
50338;BME280;46221;51.178;5.900;2023-02-26T01:06:57;101628.00;;;11.92;58.35
50338;BME280;46221;51.178;5.900;2023-02-26T01:09:27;101628.00;;;11.92;58.81
50338;BME280;46221;51.178;5.900;2023-02-26T01:11:56;101628.06;;;11.90;58.89
50338;BME280;46221;51.178;5.900;2023-02-26T01:14:23;101628.94;;;11.91;58.67
50338;BME280;46221;51.178;5.900;2023-02-26T01:22:24;101630.75;;;11.89;58.78
50338;BME280;46221;51.178;5.900;2023-02-26T01:24:58;101634.38;;;11.86;59.12
50338;BME280;46221;51.178;5.900;2023-02-26T01:27:26;101640.56;;;11.85;58.99
50338;BME280;46221;51.178;5.900;2023-02-26T01:29:53;101632.59;;;11.85;58.83
50338;BME280;46221;51.178;5.900;2023-02-26T01:32:26;101636.09;;;11.87;59.00
50338;BME280;46221;51.178;5.900;2023-02-26T01:35:03;101622.00;;;11.82;59.05
50338;BME280;46221;51.178;5.900;2023-02-26T01:38:02;101637.91;;;11.85;59.08
50338;BME280;46221;51.178;5.900;2023-02-26T01:43:23;101637.13;;;11.80;59.36
50338;BME280;46221;51.178;5.900;2023-02-26T01:46:04;101638.81;;;11.83;59.28
50338;BME280;46221;51.178;5.900;2023-02-26T01:48:43;101645.88;;;11.84;59.73
50338;BME280;46221;51.178;5.900;2023-02-26T01:51:13;101643.31;;;11.79;59.06
50338;BME280;46221;51.178;5.900;2023-02-26T01:53:39;101643.31;;;11.79;59.10
50338;BME280;46221;51.178;5.900;2023-02-26T01:56:15;101655.66;;;11.83;58.52
50338;BME280;46221;51.178;5.900;2023-02-26T01:58:43;101652.09;;;11.84;59.06
50338;BME280;46221;51.178;5.900;2023-02-26T02:01:12;101655.66;;;11.83;59.08
50338;BME280;46221;51.178;5.900;2023-02-26T02:03:39;101661.81;;;11.85;59.21
50338;BME280;46221;51.178;5.900;2023-02-26T02:06:19;101653.84;;;11.85;58.84
50338;BME280;46221;51.178;5.900;2023-02-26T02:08:46;101652.09;;;11.84;59.23
50338;BME280;46221;51.178;5.900;2023-02-26T02:11:14;101650.34;;;11.83;59.13
50338;BME280;46221;51.178;5.900;2023-02-26T02:14:02;101657.41;;;11.84;59.36
50338;BME280;46221;51.178;5.900;2023-02-26T02:16:47;101652.13;;;11.81;59.19
50338;BME280;46221;51.178;5.900;2023-02-26T02:24:57;101674.25;;;11.83;59.55
50338;BME280;46221;51.178;5.900;2023-02-26T02:27:34;101669.81;;;11.82;59.53
50338;BME280;46221;51.178;5.900;2023-02-26T02:30:13;101675.13;;;11.82;59.43
50338;BME280;46221;51.178;5.900;2023-02-26T02:32:50;101672.47;;;11.82;59.15
50338;BME280;46221;51.178;5.900;2023-02-26T02:35:45;101670.78;;;11.80;58.68
50338;BME280;46221;51.178;5.900;2023-02-26T02:38:19;101671.66;;;11.80;59.17
50338;BME280;46221;51.178;5.900;2023-02-26T02:40:59;101679.63;;;11.78;59.39
50338;BME280;46221;51.178;5.900;2023-02-26T02:43:31;101680.56;;;11.76;59.47
50338;BME280;46221;51.178;5.900;2023-02-26T02:46:07;101677.03;;;11.77;59.10
50338;BME280;46221;51.178;5.900;2023-02-26T02:48:48;101679.75;;;11.74;58.67
50338;BME280;46221;51.178;5.900;2023-02-26T02:51:21;101692.97;;;11.77;59.08
50338;BME280;46221;51.178;5.900;2023-02-26T02:54:09;101698.34;;;11.74;59.17
50338;BME280;46221;51.178;5.900;2023-02-26T03:01:40;101701.00;;;11.72;59.23
50338;BME280;46221;51.178;5.900;2023-02-26T03:04:11;101691.41;;;11.67;59.03
50338;BME280;46221;51.178;5.900;2023-02-26T03:06:38;101701.00;;;11.72;59.25
50338;BME280;46221;51.178;5.900;2023-02-26T03:09:07;101714.34;;;11.71;59.16
50338;BME280;46221;51.178;5.900;2023-02-26T03:11:35;101703.72;;;11.71;59.38
50338;BME280;46221;51.178;5.900;2023-02-26T03:14:02;101715.25;;;11.68;59.40
50338;BME280;46221;51.178;5.900;2023-02-26T03:22:36;101733.09;;;11.63;59.37
50338;BME280;46221;51.178;5.900;2023-02-26T03:25:11;101726.00;;;11.64;59.16
50338;BME280;46221;51.178;5.900;2023-02-26T03:28:21;101725.25;;;11.55;59.38
50338;BME280;46221;51.178;5.900;2023-02-26T03:33:59;101729.75;;;11.53;59.50
50338;BME280;46221;51.178;5.900;2023-02-26T03:39:02;101740.31;;;11.57;59.70
50338;BME280;46221;51.178;5.900;2023-02-26T03:41:41;101745.56;;;11.58;59.53
50338;BME280;46221;51.178;5.900;2023-02-26T03:44:15;101746.50;;;11.55;59.78
50338;BME280;46221;51.178;5.900;2023-02-26T03:46:49;101756.28;;;11.53;59.64
50338;BME280;46221;51.178;5.900;2023-02-26T03:49:22;101763.31;;;11.56;59.89
50338;BME280;46221;51.178;5.900;2023-02-26T03:51:51;101750.13;;;11.51;59.96
50338;BME280;46221;51.178;5.900;2023-02-26T03:54:22;101766.00;;;11.54;60.14
50338;BME280;46221;51.178;5.900;2023-02-26T03:56:50;101759.81;;;11.52;60.02
50338;BME280;46221;51.178;5.900;2023-02-26T03:59:17;101765.13;;;11.52;60.12
50338;BME280;46221;51.178;5.900;2023-02-26T04:04:31;101770.53;;;11.48;60.09
50338;BME280;46221;51.178;5.900;2023-02-26T04:07:00;101774.06;;;11.48;60.10
50338;BME280;46221;51.178;5.900;2023-02-26T04:09:27;101788.22;;;11.49;59.94
50338;BME280;46221;51.178;5.900;2023-02-26T04:11:55;101799.72;;;11.49;59.93
50338;BME280;46221;51.178;5.900;2023-02-26T04:14:22;101790.06;;;11.45;60.20
50338;BME280;46221;51.178;5.900;2023-02-26T04:16:48;101796.25;;;11.46;60.07
50338;BME280;46221;51.178;5.900;2023-02-26T04:19:15;101799.78;;;11.46;60.19
50338;BME280;46221;51.178;5.900;2023-02-26T04:21:41;101797.16;;;11.45;60.00
50338;BME280;46221;51.178;5.900;2023-02-26T04:24:08;101803.34;;;11.45;60.33
50338;BME280;46221;51.178;5.900;2023-02-26T04:26:35;101807.78;;;11.45;60.05
50338;BME280;46221;51.178;5.900;2023-02-26T04:29:01;101805.16;;;11.43;59.84
50338;BME280;46221;51.178;5.900;2023-02-26T04:31:28;101814.88;;;11.44;59.98
50338;BME280;46221;51.178;5.900;2023-02-26T04:33:55;101815.78;;;11.43;60.25
50338;BME280;46221;51.178;5.900;2023-02-26T04:36:21;101812.25;;;11.41;60.06
50338;BME280;46221;51.178;5.900;2023-02-26T04:38:48;101812.25;;;11.41;60.08
50338;BME280;46221;51.178;5.900;2023-02-26T04:41:15;101813.22;;;11.37;60.08
50338;BME280;46221;51.178;5.900;2023-02-26T04:43:41;101807.06;;;11.35;60.01
50338;BME280;46221;51.178;5.900;2023-02-26T04:46:08;101813.22;;;11.37;60.29
50338;BME280;46221;51.178;5.900;2023-02-26T04:48:34;101820.31;;;11.37;60.23
50338;BME280;46221;51.178;5.900;2023-02-26T04:51:01;101818.53;;;11.37;60.42
50338;BME280;46221;51.178;5.900;2023-02-26T04:53:27;101824.72;;;11.36;60.39
50338;BME280;46221;51.178;5.900;2023-02-26T04:55:54;101823.91;;;11.34;60.02
50338;BME280;46221;51.178;5.900;2023-02-26T04:58:20;101834.56;;;11.31;59.87
50338;BME280;46221;51.178;5.900;2023-02-26T05:00:48;101836.31;;;11.32;60.21
50338;BME280;46221;51.178;5.900;2023-02-26T05:03:15;101834.56;;;11.31;60.29
50338;BME280;46221;51.178;5.900;2023-02-26T05:05:42;101844.28;;;11.32;60.16
50338;BME280;46221;51.178;5.900;2023-02-26T05:08:09;101842.53;;;11.31;60.23
50338;BME280;46221;51.178;5.900;2023-02-26T05:10:35;101858.47;;;11.31;60.47
50338;BME280;46221;51.178;5.900;2023-02-26T05:13:02;101852.34;;;11.26;60.09
50338;BME280;46221;51.178;5.900;2023-02-26T05:15:28;101852.31;;;11.27;60.38
50338;BME280;46221;51.178;5.900;2023-02-26T05:17:54;101855.94;;;11.23;60.39
50338;BME280;46221;51.178;5.900;2023-02-26T05:20:21;101849.81;;;11.20;60.22
50338;BME280;46221;51.178;5.900;2023-02-26T05:22:47;101868.28;;;11.24;60.30
50338;BME280;46221;51.178;5.900;2023-02-26T05:25:14;101867.44;;;11.24;60.21
50338;BME280;46221;51.178;5.900;2023-02-26T05:27:41;101867.44;;;11.24;60.32
50338;BME280;46221;51.178;5.900;2023-02-26T05:30:10;101871.84;;;11.23;60.20
50338;BME280;46221;51.178;5.900;2023-02-26T05:32:37;101876.34;;;11.20;60.25
50338;BME280;46221;51.178;5.900;2023-02-26T05:35:04;101875.44;;;11.19;59.77
50338;BME280;46221;51.178;5.900;2023-02-26T05:37:30;101884.34;;;11.15;59.90
50338;BME280;46221;51.178;5.900;2023-02-26T05:39:57;101887.88;;;11.16;59.89
50338;BME280;46221;51.178;5.900;2023-02-26T05:42:23;101886.19;;;11.12;59.95
50338;BME280;46221;51.178;5.900;2023-02-26T05:44:50;101890.53;;;11.16;60.18
50338;BME280;46221;51.178;5.900;2023-02-26T05:47:16;101904.72;;;11.15;60.01
50338;BME280;46221;51.178;5.900;2023-02-26T05:49:43;101899.41;;;11.15;60.25
50338;BME280;46221;51.178;5.900;2023-02-26T05:52:09;101898.53;;;11.13;60.40
50338;BME280;46221;51.178;5.900;2023-02-26T05:54:36;101902.97;;;11.12;60.14
50338;BME280;46221;51.178;5.900;2023-02-26T05:57:02;101903.00;;;11.11;60.49
50338;BME280;46221;51.178;5.900;2023-02-26T05:59:28;101903.00;;;11.11;60.07
50338;BME280;46221;51.178;5.900;2023-02-26T06:01:55;101911.03;;;11.06;60.21
50338;BME280;46221;51.178;5.900;2023-02-26T06:04:21;101917.19;;;11.10;59.89
50338;BME280;46221;51.178;5.900;2023-02-26T06:06:48;101913.69;;;11.07;59.66
50338;BME280;46221;51.178;5.900;2023-02-26T06:09:15;101927.84;;;11.06;59.43
50338;BME280;46221;51.178;5.900;2023-02-26T06:11:41;101926.06;;;11.05;59.48
50338;BME280;46221;51.178;5.900;2023-02-26T06:14:08;101926.06;;;11.05;59.30
50338;BME280;46221;51.178;5.900;2023-02-26T06:16:34;101927.91;;;11.03;59.27
50338;BME280;46221;51.178;5.900;2023-02-26T06:19:01;101935.78;;;11.08;59.15
50338;BME280;46221;51.178;5.900;2023-02-26T06:21:28;101940.22;;;11.07;59.31
50338;BME280;46221;51.178;5.900;2023-02-26T06:23:54;101951.69;;;11.08;59.23
50338;BME280;46221;51.178;5.900;2023-02-26T06:26:21;101952.59;;;11.05;59.45
50338;BME280;46221;51.178;5.900;2023-02-26T06:28:49;101946.41;;;11.06;59.12
50338;BME280;46221;51.178;5.900;2023-02-26T06:31:15;101946.44;;;11.05;59.67
50338;BME280;46221;51.178;5.900;2023-02-26T06:33:42;101952.56;;;11.08;59.33
50338;BME280;46221;51.178;5.900;2023-02-26T06:36:08;101944.63;;;11.07;59.02
50338;BME280;46221;51.178;5.900;2023-02-26T06:38:35;101957.88;;;11.10;59.54
50338;BME280;46221;51.178;5.900;2023-02-26T06:41:01;101956.13;;;11.07;58.97
50338;BME280;46221;51.178;5.900;2023-02-26T06:43:28;101971.09;;;11.12;59.19
50338;BME280;46221;51.178;5.900;2023-02-26T06:45:58;101971.94;;;11.15;58.88
50338;BME280;46221;51.178;5.900;2023-02-26T06:48:26;101971.06;;;11.16;59.02
50338;BME280;46221;51.178;5.900;2023-02-26T06:50:52;101968.41;;;11.16;59.19
50338;BME280;46221;51.178;5.900;2023-02-26T06:53:19;101970.97;;;11.19;58.85
50338;BME280;46221;51.178;5.900;2023-02-26T06:55:49;101977.13;;;11.23;58.58
50338;BME280;46221;51.178;5.900;2023-02-26T06:58:16;101985.94;;;11.25;58.52
50338;BME280;46221;51.178;5.900;2023-02-26T07:00:43;101992.09;;;11.28;58.90
50338;BME280;46221;51.178;5.900;2023-02-26T07:03:13;101989.47;;;11.27;58.95
50338;BME280;46221;51.178;5.900;2023-02-26T07:05:40;101992.09;;;11.30;59.12
50338;BME280;46221;51.178;5.900;2023-02-26T07:08:07;102000.88;;;11.34;58.65
50338;BME280;46221;51.178;5.900;2023-02-26T07:10:34;102001.72;;;11.37;58.76
50338;BME280;46221;51.178;5.900;2023-02-26T07:13:01;101999.94;;;11.38;58.33
50338;BME280;46221;51.178;5.900;2023-02-26T07:15:28;101997.22;;;11.39;58.74
50338;BME280;46221;51.178;5.900;2023-02-26T07:17:55;102013.13;;;11.42;58.64
50338;BME280;46221;51.178;5.900;2023-02-26T07:20:21;102021.88;;;11.50;58.72
50338;BME280;46221;51.178;5.900;2023-02-26T07:22:48;102026.25;;;11.51;58.43
50338;BME280;46221;51.178;5.900;2023-02-26T07:25:14;102029.78;;;11.53;58.54
50338;BME280;46221;51.178;5.900;2023-02-26T07:27:41;102034.16;;;11.56;58.32
50338;BME280;46221;51.178;5.900;2023-02-26T07:30:09;102027.91;;;11.59;58.20
50338;BME280;46221;51.178;5.900;2023-02-26T07:32:36;102045.63;;;11.60;58.47
50338;BME280;46221;51.178;5.900;2023-02-26T07:35:03;102043.81;;;11.63;58.39
50338;BME280;46221;51.178;5.900;2023-02-26T07:37:30;102042.91;;;11.64;58.24
50338;BME280;46221;51.178;5.900;2023-02-26T07:39:58;102056.06;;;11.72;58.05
50338;BME280;46221;51.178;5.900;2023-02-26T07:42:25;102054.25;;;11.74;58.13
50338;BME280;46221;51.178;5.900;2023-02-26T07:44:51;102054.25;;;11.74;58.05
50338;BME280;46221;51.178;5.900;2023-02-26T07:47:18;102055.97;;;11.78;57.96
50338;BME280;46221;51.178;5.900;2023-02-26T07:49:44;102064.75;;;11.83;57.90
50338;BME280;46221;51.178;5.900;2023-02-26T07:52:11;102063.84;;;11.86;57.92
50338;BME280;46221;51.178;5.900;2023-02-26T07:54:37;102062.91;;;11.88;58.06
50338;BME280;46221;51.178;5.900;2023-02-26T07:57:04;102074.38;;;11.92;57.62
50338;BME280;46221;51.178;5.900;2023-02-26T07:59:30;102077.91;;;11.94;57.76
50338;BME280;46221;51.178;5.900;2023-02-26T08:01:57;102075.25;;;11.92;57.63
50338;BME280;46221;51.178;5.900;2023-02-26T08:04:23;102084.00;;;11.99;57.42
50338;BME280;46221;51.178;5.900;2023-02-26T08:06:50;102082.16;;;12.02;57.59
50338;BME280;46221;51.178;5.900;2023-02-26T08:09:20;102086.59;;;12.04;57.17
50338;BME280;46221;51.178;5.900;2023-02-26T08:11:47;102105.16;;;12.07;57.38
50338;BME280;46221;51.178;5.900;2023-02-26T08:14:13;102101.59;;;12.08;56.97
50338;BME280;46221;51.178;5.900;2023-02-26T08:16:40;102095.41;;;12.06;57.43
50338;BME280;46221;51.178;5.900;2023-02-26T08:19:06;102098.00;;;12.09;56.90
50338;BME280;46221;51.178;5.900;2023-02-26T08:21:33;102101.53;;;12.11;57.48
50338;BME280;46221;51.178;5.900;2023-02-26T08:23:59;102111.25;;;12.13;57.19
50338;BME280;46221;51.178;5.900;2023-02-26T08:26:26;102109.47;;;12.14;57.16
50338;BME280;46221;51.178;5.900;2023-02-26T08:28:54;102114.72;;;12.17;56.99
50338;BME280;46221;51.178;5.900;2023-02-26T08:31:20;102120.88;;;12.19;56.74
50338;BME280;46221;51.178;5.900;2023-02-26T08:33:47;102116.53;;;12.15;57.02
50338;BME280;46221;51.178;5.900;2023-02-26T08:36:14;102132.38;;;12.21;56.63
50338;BME280;46221;51.178;5.900;2023-02-26T08:38:40;102131.50;;;12.20;56.99
50338;BME280;46221;51.178;5.900;2023-02-26T08:41:06;102127.94;;;12.23;57.58
50338;BME280;46221;51.178;5.900;2023-02-26T08:43:33;102142.91;;;12.27;56.70
50338;BME280;46221;51.178;5.900;2023-02-26T08:46:00;102139.38;;;12.27;56.94
50338;BME280;46221;51.178;5.900;2023-02-26T08:48:26;102149.91;;;12.33;56.77
50338;BME280;46221;51.178;5.900;2023-02-26T08:50:53;102141.97;;;12.31;56.46
50338;BME280;46221;51.178;5.900;2023-02-26T08:53:19;102147.28;;;12.31;56.50
50338;BME280;46221;51.178;5.900;2023-02-26T08:55:47;102146.34;;;12.34;56.67
50338;BME280;46221;51.178;5.900;2023-02-26T08:58:14;102148.06;;;12.38;56.41
50338;BME280;46221;51.178;5.900;2023-02-26T09:00:41;59360.63;;;-145.57;100.00
50338;BME280;46221;51.178;5.900;2023-02-26T09:03:07;59360.63;;;-145.57;100.00
50338;BME280;46221;51.178;5.900;2023-02-26T09:05:34;59360.63;;;-145.57;100.00
50338;BME280;46221;51.178;5.900;2023-02-26T09:08:01;59360.63;;;-145.57;100.00
50338;BME280;46221;51.178;5.900;2023-02-26T09:10:27;59360.63;;;-145.57;100.00
50338;BME280;46221;51.178;5.900;2023-02-26T09:12:54;59360.63;;;-145.57;100.00
50338;BME280;46221;51.178;5.900;2023-02-26T09:15:21;59360.63;;;-145.57;100.00
50338;BME280;46221;51.178;5.900;2023-02-26T09:17:47;59360.63;;;-145.57;100.00
50338;BME280;46221;51.178;5.900;2023-02-26T09:20:14;59360.63;;;-145.57;100.00
50338;BME280;46221;51.178;5.900;2023-02-26T09:22:41;59360.63;;;-145.57;100.00
50338;BME280;46221;51.178;5.900;2023-02-26T09:25:08;59360.63;;;-145.57;100.00
50338;BME280;46221;51.178;5.900;2023-02-26T09:27:35;59360.63;;;-145.57;100.00
50338;BME280;46221;51.178;5.900;2023-02-26T09:30:03;59360.63;;;-145.57;100.00
50338;BME280;46221;51.178;5.900;2023-02-26T09:32:30;59360.63;;;-145.57;100.00
50338;BME280;46221;51.178;5.900;2023-02-26T09:34:57;59360.63;;;-145.57;100.00
50338;BME280;46221;51.178;5.900;2023-02-26T09:37:23;59360.63;;;-145.57;100.00
50338;BME280;46221;51.178;5.900;2023-02-26T09:39:50;59360.63;;;-145.57;100.00
50338;BME280;46221;51.178;5.900;2023-02-26T09:45:36;59360.63;;;-145.57;100.00
50338;BME280;46221;51.178;5.900;2023-02-26T09:48:04;59360.63;;;-145.57;100.00
50338;BME280;46221;51.178;5.900;2023-02-26T09:50:47;59360.63;;;-145.57;100.00
50338;BME280;46221;51.178;5.900;2023-02-26T09:53:21;59360.63;;;-145.57;100.00
50338;BME280;46221;51.178;5.900;2023-02-26T09:55:50;59360.63;;;-145.57;100.00
50338;BME280;46221;51.178;5.900;2023-02-26T09:58:29;59360.63;;;-145.57;100.00
50338;BME280;46221;51.178;5.900;2023-02-26T10:01:03;59360.63;;;-145.57;100.00
50338;BME280;46221;51.178;5.900;2023-02-26T10:14:40;59360.63;;;-145.57;100.00
50338;BME280;46221;51.178;5.900;2023-02-26T10:20:41;59360.63;;;-145.57;100.00
50338;BME280;46221;51.178;5.900;2023-02-26T10:26:19;59360.63;;;-145.57;100.00
50338;BME280;46221;51.178;5.900;2023-02-26T10:32:01;59360.63;;;-145.57;100.00
50338;BME280;46221;51.178;5.900;2023-02-26T10:37:15;59360.63;;;-145.57;100.00
50338;BME280;46221;51.178;5.900;2023-02-26T10:40:03;59360.63;;;-145.57;100.00
50338;BME280;46221;51.178;5.900;2023-02-26T10:42:51;59360.63;;;-145.57;100.00
50338;BME280;46221;51.178;5.900;2023-02-26T10:50:49;59360.63;;;-145.57;100.00
50338;BME280;46221;51.178;5.900;2023-02-26T10:53:16;59360.63;;;-145.57;100.00
50338;BME280;46221;51.178;5.900;2023-02-26T10:55:50;59360.63;;;-145.57;100.00
50338;BME280;46221;51.178;5.900;2023-02-26T10:58:22;59360.63;;;-145.57;100.00
50338;BME280;46221;51.178;5.900;2023-02-26T11:00:53;59360.63;;;-145.57;100.00
50338;BME280;46221;51.178;5.900;2023-02-26T11:03:31;59360.63;;;-145.57;100.00
50338;BME280;46221;51.178;5.900;2023-02-26T11:06:00;59360.63;;;-145.57;100.00
50338;BME280;46221;51.178;5.900;2023-02-26T11:08:43;59360.63;;;-145.57;100.00
50338;BME280;46221;51.178;5.900;2023-02-26T11:11:48;59360.63;;;-145.57;100.00
50338;BME280;46221;51.178;5.900;2023-02-26T11:14:16;59360.63;;;-145.57;100.00
50338;BME280;46221;51.178;5.900;2023-02-26T11:16:49;59360.63;;;-145.57;100.00
50338;BME280;46221;51.178;5.900;2023-02-26T11:19:30;59360.63;;;-145.57;100.00
50338;BME280;46221;51.178;5.900;2023-02-26T11:21:59;59360.63;;;-145.57;100.00
50338;BME280;46221;51.178;5.900;2023-02-26T11:24:35;59360.63;;;-145.57;100.00
50338;BME280;46221;51.178;5.900;2023-02-26T11:27:07;59360.63;;;-145.57;100.00
50338;BME280;46221;51.178;5.900;2023-02-26T11:29:38;59360.63;;;-145.57;100.00
50338;BME280;46221;51.178;5.900;2023-02-26T11:32:11;59360.63;;;-145.57;100.00
50338;BME280;46221;51.178;5.900;2023-02-26T11:34:46;59360.63;;;-145.57;100.00
50338;BME280;46221;51.178;5.900;2023-02-26T11:37:23;59360.63;;;-145.57;100.00
50338;BME280;46221;51.178;5.900;2023-02-26T11:39:57;59360.63;;;-145.57;100.00
50338;BME280;46221;51.178;5.900;2023-02-26T11:42:25;59360.63;;;-145.57;100.00
50338;BME280;46221;51.178;5.900;2023-02-26T11:44:53;59360.63;;;-145.57;100.00
50338;BME280;46221;51.178;5.900;2023-02-26T11:47:24;59360.63;;;-145.57;100.00
50338;BME280;46221;51.178;5.900;2023-02-26T11:50:00;59360.63;;;-145.57;100.00
50338;BME280;46221;51.178;5.900;2023-02-26T11:52:40;59360.63;;;-145.57;100.00
50338;BME280;46221;51.178;5.900;2023-02-26T11:55:29;59360.63;;;-145.57;100.00
50338;BME280;46221;51.178;5.900;2023-02-26T11:57:57;59360.63;;;-145.57;100.00
50338;BME280;46221;51.178;5.900;2023-02-26T12:00:36;59360.63;;;-145.57;100.00
50338;BME280;46221;51.178;5.900;2023-02-26T12:03:10;59360.63;;;-145.57;100.00
50338;BME280;46221;51.178;5.900;2023-02-26T12:05:40;59360.63;;;-145.57;100.00
50338;BME280;46221;51.178;5.900;2023-02-26T12:08:16;59360.63;;;-145.57;100.00
50338;BME280;46221;51.178;5.900;2023-02-26T12:13:34;59360.63;;;-145.57;100.00
50338;BME280;46221;51.178;5.900;2023-02-26T12:16:16;59360.63;;;-145.57;100.00
50338;BME280;46221;51.178;5.900;2023-02-26T12:21:40;59360.63;;;-145.57;100.00
50338;BME280;46221;51.178;5.900;2023-02-26T12:24:29;59360.63;;;-145.57;100.00
50338;BME280;46221;51.178;5.900;2023-02-26T12:27:09;59360.63;;;-145.57;100.00
50338;BME280;46221;51.178;5.900;2023-02-26T12:43:21;59360.63;;;-145.57;100.00
50338;BME280;46221;51.178;5.900;2023-02-26T12:46:00;59360.63;;;-145.57;100.00
50338;BME280;46221;51.178;5.900;2023-02-26T12:48:53;59360.63;;;-145.57;100.00
50338;BME280;46221;51.178;5.900;2023-02-26T12:57:09;59360.63;;;-145.57;100.00
50338;BME280;46221;51.178;5.900;2023-02-26T13:03:01;59360.63;;;-145.57;100.00
50338;BME280;46221;51.178;5.900;2023-02-26T13:05:53;59360.63;;;-145.57;100.00
50338;BME280;46221;51.178;5.900;2023-02-26T13:08:30;59360.63;;;-145.57;100.00
50338;BME280;46221;51.178;5.900;2023-02-26T13:11:10;59360.63;;;-145.57;100.00
50338;BME280;46221;51.178;5.900;2023-02-26T13:16:43;59360.63;;;-145.57;100.00
50338;BME280;46221;51.178;5.900;2023-02-26T13:19:40;59360.63;;;-145.57;100.00
50338;BME280;46221;51.178;5.900;2023-02-26T13:27:14;59360.63;;;-145.57;100.00
50338;BME280;46221;51.178;5.900;2023-02-26T13:29:48;59360.63;;;-145.57;100.00
50338;BME280;46221;51.178;5.900;2023-02-26T13:32:21;59360.63;;;-145.57;100.00
50338;BME280;46221;51.178;5.900;2023-02-26T13:35:04;59360.63;;;-145.57;100.00
50338;BME280;46221;51.178;5.900;2023-02-26T13:37:40;59360.63;;;-145.57;100.00
50338;BME280;46221;51.178;5.900;2023-02-26T13:43:45;59360.63;;;-145.57;100.00
50338;BME280;46221;51.178;5.900;2023-02-26T13:51:30;59360.63;;;-145.57;100.00
50338;BME280;46221;51.178;5.900;2023-02-26T13:54:00;59360.63;;;-145.57;100.00
50338;BME280;46221;51.178;5.900;2023-02-26T14:06:51;59360.63;;;-145.57;100.00
50338;BME280;46221;51.178;5.900;2023-02-26T14:19:41;59360.63;;;-145.57;100.00
50338;BME280;46221;51.178;5.900;2023-02-26T14:32:37;59360.63;;;-145.57;100.00
50338;BME280;46221;51.178;5.900;2023-02-26T14:35:14;59360.63;;;-145.57;100.00
50338;BME280;46221;51.178;5.900;2023-02-26T14:37:42;59360.63;;;-145.57;100.00
50338;BME280;46221;51.178;5.900;2023-02-26T14:40:18;59360.63;;;-145.57;100.00
50338;BME280;46221;51.178;5.900;2023-02-26T14:42:49;59360.63;;;-145.57;100.00
50338;BME280;46221;51.178;5.900;2023-02-26T14:48:00;59360.63;;;-145.57;100.00
50338;BME280;46221;51.178;5.900;2023-02-26T14:53:53;59360.63;;;-145.57;100.00
50338;BME280;46221;51.178;5.900;2023-02-26T15:02:36;59360.63;;;-145.57;100.00
50338;BME280;46221;51.178;5.900;2023-02-26T15:11:11;59360.63;;;-145.57;100.00
50338;BME280;46221;51.178;5.900;2023-02-26T15:18:50;59360.63;;;-145.57;100.00
50338;BME280;46221;51.178;5.900;2023-02-26T15:21:29;59360.63;;;-145.57;100.00
50338;BME280;46221;51.178;5.900;2023-02-26T15:24:01;59360.63;;;-145.57;100.00
50338;BME280;46221;51.178;5.900;2023-02-26T15:26:32;59360.63;;;-145.57;100.00
50338;BME280;46221;51.178;5.900;2023-02-26T15:29:02;59360.63;;;-145.57;100.00
50338;BME280;46221;51.178;5.900;2023-02-26T15:31:33;59360.63;;;-145.57;100.00
50338;BME280;46221;51.178;5.900;2023-02-26T15:34:01;59360.63;;;-145.57;100.00
50338;BME280;46221;51.178;5.900;2023-02-26T15:36:30;59360.63;;;-145.57;100.00
50338;BME280;46221;51.178;5.900;2023-02-26T15:39:00;59360.63;;;-145.57;100.00
50338;BME280;46221;51.178;5.900;2023-02-26T15:41:30;59360.63;;;-145.57;100.00
50338;BME280;46221;51.178;5.900;2023-02-26T15:44:06;59360.63;;;-145.57;100.00
50338;BME280;46221;51.178;5.900;2023-02-26T15:46:39;59360.63;;;-145.57;100.00
50338;BME280;46221;51.178;5.900;2023-02-26T15:52:03;59360.63;;;-145.57;100.00